sensor_id;sensor_type;location;lat;lon;timestamp;pressure;altitude;pressure_sealevel;temperature;humidity
37206;BME280;23099;42.636;23.198;2023-03-19T00:02:16;92453.09;;;0.03;79.83
37206;BME280;23099;42.636;23.198;2023-03-19T00:04:45;92453.25;;;-0.08;79.65
37206;BME280;23099;42.636;23.198;2023-03-19T00:07:12;92444.34;;;-0.12;79.93
37206;BME280;23099;42.636;23.198;2023-03-19T00:09:39;92438.69;;;-0.19;80.04
37206;BME280;23099;42.636;23.198;2023-03-19T00:12:06;92444.22;;;-0.20;80.73
37206;BME280;23099;42.636;23.198;2023-03-19T00:14:33;92448.97;;;-0.22;80.42
37206;BME280;23099;42.636;23.198;2023-03-19T00:16:59;92448.47;;;-0.24;80.21
37206;BME280;23099;42.636;23.198;2023-03-19T00:19:26;92444.69;;;-0.37;79.51
37206;BME280;23099;42.636;23.198;2023-03-19T00:21:55;92447.31;;;-0.37;81.23
37206;BME280;23099;42.636;23.198;2023-03-19T00:24:21;92444.63;;;-0.32;81.86
37206;BME280;23099;42.636;23.198;2023-03-19T00:26:48;92442.00;;;-0.32;81.66
37206;BME280;23099;42.636;23.198;2023-03-19T00:29:15;92432.28;;;-0.31;81.15
37206;BME280;23099;42.636;23.198;2023-03-19T00:31:42;92426.44;;;-0.28;81.54
37206;BME280;23099;42.636;23.198;2023-03-19T00:34:08;92428.50;;;-0.25;80.54
37206;BME280;23099;42.636;23.198;2023-03-19T00:36:37;92421.97;;;-0.28;80.36
37206;BME280;23099;42.636;23.198;2023-03-19T00:39:05;92420.50;;;-0.34;80.67
37206;BME280;23099;42.636;23.198;2023-03-19T00:41:33;92426.44;;;-0.47;80.23
37206;BME280;23099;42.636;23.198;2023-03-19T00:43:59;92429.06;;;-0.47;80.86
37206;BME280;23099;42.636;23.198;2023-03-19T00:46:26;92418.56;;;-0.47;81.91
37206;BME280;23099;42.636;23.198;2023-03-19T00:48:53;92419.28;;;-0.42;81.90
37206;BME280;23099;42.636;23.198;2023-03-19T00:51:21;92415.06;;;-0.43;82.54
37206;BME280;23099;42.636;23.198;2023-03-19T00:53:48;92418.00;;;-0.44;81.95
37206;BME280;23099;42.636;23.198;2023-03-19T00:56:17;92414.22;;;-0.57;81.33
37206;BME280;23099;42.636;23.198;2023-03-19T00:58:44;92411.16;;;-0.64;82.11
37206;BME280;23099;42.636;23.198;2023-03-19T01:01:13;92406.81;;;-0.74;82.10
37206;BME280;23099;42.636;23.198;2023-03-19T01:03:41;92408.94;;;-0.76;82.67
37206;BME280;23099;42.636;23.198;2023-03-19T01:06:07;92404.75;;;-0.77;82.69
37206;BME280;23099;42.636;23.198;2023-03-19T01:08:34;92401.41;;;-0.82;82.96
37206;BME280;23099;42.636;23.198;2023-03-19T01:11:06;92396.69;;;-0.85;84.16
37206;BME280;23099;42.636;23.198;2023-03-19T01:13:35;92393.34;;;-0.67;83.59
37206;BME280;23099;42.636;23.198;2023-03-19T01:16:02;92395.47;;;-0.69;82.77
37206;BME280;23099;42.636;23.198;2023-03-19T01:18:29;92399.44;;;-0.72;81.61
37206;BME280;23099;42.636;23.198;2023-03-19T01:20:56;92396.81;;;-0.72;82.92
37206;BME280;23099;42.636;23.198;2023-03-19T01:23:23;92396.03;;;-0.72;83.12
37206;BME280;23099;42.636;23.198;2023-03-19T01:25:49;92392.66;;;-0.73;83.56
37206;BME280;23099;42.636;23.198;2023-03-19T01:28:16;92395.50;;;-0.93;82.98
37206;BME280;23099;42.636;23.198;2023-03-19T01:30:44;92398.91;;;-0.92;83.80
37206;BME280;23099;42.636;23.198;2023-03-19T01:33:11;92393.09;;;-0.89;84.08
37206;BME280;23099;42.636;23.198;2023-03-19T01:35:38;92400.69;;;-0.88;83.74
37206;BME280;23099;42.636;23.198;2023-03-19T01:38:04;92391.25;;;-0.89;84.24
37206;BME280;23099;42.636;23.198;2023-03-19T01:40:32;92394.38;;;-0.87;84.56
37206;BME280;23099;42.636;23.198;2023-03-19T01:43:12;92399.41;;;-0.90;84.07
37206;BME280;23099;42.636;23.198;2023-03-19T01:45:41;92400.78;;;-0.98;84.24
37206;BME280;23099;42.636;23.198;2023-03-19T01:48:16;92400.28;;;-1.00;84.16
37206;BME280;23099;42.636;23.198;2023-03-19T01:50:45;92393.31;;;-1.10;85.50
37206;BME280;23099;42.636;23.198;2023-03-19T01:53:16;92361.00;;;-1.29;85.66
37206;BME280;23099;42.636;23.198;2023-03-19T01:55:45;92405.25;;;-0.98;85.20
37206;BME280;23099;42.636;23.198;2023-03-19T01:58:12;92394.47;;;-0.97;85.15
37206;BME280;23099;42.636;23.198;2023-03-19T02:00:39;92394.66;;;-0.88;85.04
37206;BME280;23099;42.636;23.198;2023-03-19T02:03:06;92396.44;;;-0.84;85.20
37206;BME280;23099;42.636;23.198;2023-03-19T02:05:36;92390.91;;;-0.82;84.27
37206;BME280;23099;42.636;23.198;2023-03-19T02:08:05;92392.75;;;-0.83;84.44
37206;BME280;23099;42.636;23.198;2023-03-19T02:10:33;92393.03;;;-0.84;84.94
37206;BME280;23099;42.636;23.198;2023-03-19T02:12:59;92398.25;;;-1.03;84.18
37206;BME280;23099;42.636;23.198;2023-03-19T02:15:26;92388.06;;;-1.10;83.78
37206;BME280;23099;42.636;23.198;2023-03-19T02:17:53;92398.78;;;-1.06;83.91
37206;BME280;23099;42.636;23.198;2023-03-19T02:20:25;92400.16;;;-1.14;83.96
37206;BME280;23099;42.636;23.198;2023-03-19T02:23:02;92392.81;;;-1.12;83.86
37206;BME280;23099;42.636;23.198;2023-03-19T02:25:36;92393.59;;;-1.11;84.70
37206;BME280;23099;42.636;23.198;2023-03-19T02:28:06;92398.91;;;-1.16;84.41
37206;BME280;23099;42.636;23.198;2023-03-19T02:30:34;92397.63;;;-1.19;84.53
37206;BME280;23099;42.636;23.198;2023-03-19T02:33:01;92400.53;;;-1.20;84.97
37206;BME280;23099;42.636;23.198;2023-03-19T02:35:30;92398.16;;;-1.22;84.90
37206;BME280;23099;42.636;23.198;2023-03-19T02:37:59;92403.91;;;-1.20;85.11
37206;BME280;23099;42.636;23.198;2023-03-19T02:40:28;92410.25;;;-1.26;84.78
37206;BME280;23099;42.636;23.198;2023-03-19T02:42:56;92401.69;;;-1.31;85.27
37206;BME280;23099;42.636;23.198;2023-03-19T02:45:27;92402.09;;;-1.48;85.65
37206;BME280;23099;42.636;23.198;2023-03-19T02:47:54;92393.56;;;-1.59;86.80
37206;BME280;23099;42.636;23.198;2023-03-19T02:50:21;92409.09;;;-1.38;87.00
37206;BME280;23099;42.636;23.198;2023-03-19T02:52:47;92404.03;;;-1.30;86.35
37206;BME280;23099;42.636;23.198;2023-03-19T02:55:15;92403.69;;;-1.23;85.54
37206;BME280;23099;42.636;23.198;2023-03-19T02:57:42;92412.34;;;-1.23;85.02
37206;BME280;23099;42.636;23.198;2023-03-19T03:00:10;92418.97;;;-1.30;85.37
37206;BME280;23099;42.636;23.198;2023-03-19T03:02:39;92412.75;;;-1.39;85.44
37206;BME280;23099;42.636;23.198;2023-03-19T03:05:05;92411.94;;;-1.35;85.71
37206;BME280;23099;42.636;23.198;2023-03-19T03:07:33;92416.66;;;-1.37;86.04
37206;BME280;23099;42.636;23.198;2023-03-19T03:10:00;92417.50;;;-1.42;85.36
37206;BME280;23099;42.636;23.198;2023-03-19T03:12:27;92418.50;;;-1.37;86.20
37206;BME280;23099;42.636;23.198;2023-03-19T03:14:53;92421.03;;;-1.27;85.84
37206;BME280;23099;42.636;23.198;2023-03-19T03:17:20;92421.09;;;-1.32;84.62
37206;BME280;23099;42.636;23.198;2023-03-19T03:19:48;92424.22;;;-1.30;85.18
37206;BME280;23099;42.636;23.198;2023-03-19T03:22:15;92424.22;;;-1.30;84.81
37206;BME280;23099;42.636;23.198;2023-03-19T03:24:42;92423.13;;;-1.29;84.90
37206;BME280;23099;42.636;23.198;2023-03-19T03:27:09;92428.19;;;-1.33;85.13
37206;BME280;23099;42.636;23.198;2023-03-19T03:29:35;92426.50;;;-1.24;84.83
37206;BME280;23099;42.636;23.198;2023-03-19T03:32:02;92425.44;;;-1.23;85.08
37206;BME280;23099;42.636;23.198;2023-03-19T03:34:29;92429.94;;;-1.28;84.62
37206;BME280;23099;42.636;23.198;2023-03-19T03:36:57;92434.09;;;-1.22;84.90
37206;BME280;23099;42.636;23.198;2023-03-19T03:39:23;92428.06;;;-1.23;85.13
37206;BME280;23099;42.636;23.198;2023-03-19T03:41:50;92427.63;;;-1.30;84.76
37206;BME280;23099;42.636;23.198;2023-03-19T03:44:17;92432.88;;;-1.30;84.82
37206;BME280;23099;42.636;23.198;2023-03-19T03:46:44;92426.88;;;-1.35;84.98
37206;BME280;23099;42.636;23.198;2023-03-19T03:49:11;92433.19;;;-1.36;84.68
37206;BME280;23099;42.636;23.198;2023-03-19T03:51:37;92435.25;;;-1.33;85.12
37206;BME280;23099;42.636;23.198;2023-03-19T03:54:05;92432.91;;;-1.35;85.07
37206;BME280;23099;42.636;23.198;2023-03-19T03:56:32;92432.63;;;-1.33;84.82
37206;BME280;23099;42.636;23.198;2023-03-19T03:58:59;92423.00;;;-1.43;84.82
37206;BME280;23099;42.636;23.198;2023-03-19T04:01:26;92432.69;;;-1.38;84.88
37206;BME280;23099;42.636;23.198;2023-03-19T04:03:52;92431.38;;;-1.41;84.89
37206;BME280;23099;42.636;23.198;2023-03-19T04:06:21;92428.91;;;-1.56;85.33
37206;BME280;23099;42.636;23.198;2023-03-19T04:08:48;92413.75;;;-1.93;86.53
37206;BME280;23099;42.636;23.198;2023-03-19T04:11:16;92427.88;;;-1.94;87.78
37206;BME280;23099;42.636;23.198;2023-03-19T04:13:43;92428.44;;;-1.97;88.26
37206;BME280;23099;42.636;23.198;2023-03-19T04:16:10;92424.41;;;-2.19;89.94
37206;BME280;23099;42.636;23.198;2023-03-19T04:18:37;92420.22;;;-2.25;90.11
37206;BME280;23099;42.636;23.198;2023-03-19T04:21:04;92422.91;;;-2.35;91.97
37206;BME280;23099;42.636;23.198;2023-03-19T04:23:31;92417.88;;;-2.21;92.56
37206;BME280;23099;42.636;23.198;2023-03-19T04:25:58;92422.78;;;-2.15;91.92
37206;BME280;23099;42.636;23.198;2023-03-19T04:28:27;92423.28;;;-2.07;91.44
37206;BME280;23099;42.636;23.198;2023-03-19T04:30:57;92423.19;;;-1.97;90.51
37206;BME280;23099;42.636;23.198;2023-03-19T04:33:24;92426.56;;;-1.92;89.60
37206;BME280;23099;42.636;23.198;2023-03-19T04:35:50;92427.88;;;-1.89;89.26
37206;BME280;23099;42.636;23.198;2023-03-19T04:38:17;92430.22;;;-1.88;89.38
37206;BME280;23099;42.636;23.198;2023-03-19T04:40:44;92425.69;;;-1.82;89.55
37206;BME280;23099;42.636;23.198;2023-03-19T04:43:12;92428.22;;;-1.72;89.60
37206;BME280;23099;42.636;23.198;2023-03-19T04:45:40;92427.16;;;-1.66;89.21
37206;BME280;23099;42.636;23.198;2023-03-19T04:48:06;92430.31;;;-1.69;88.61
37206;BME280;23099;42.636;23.198;2023-03-19T04:50:33;92426.38;;;-1.66;88.89
37206;BME280;23099;42.636;23.198;2023-03-19T04:53:00;92415.84;;;-1.61;89.18
37206;BME280;23099;42.636;23.198;2023-03-19T04:55:27;92418.66;;;-1.53;89.13
37206;BME280;23099;42.636;23.198;2023-03-19T04:57:54;92415.25;;;-1.53;88.13
37206;BME280;23099;42.636;23.198;2023-03-19T05:00:21;92419.06;;;-1.40;88.62
37206;BME280;23099;42.636;23.198;2023-03-19T05:02:49;92432.41;;;-1.37;87.45
37206;BME280;23099;42.636;23.198;2023-03-19T05:05:15;92431.38;;;-1.41;87.02
37206;BME280;23099;42.636;23.198;2023-03-19T05:07:42;92435.75;;;-1.60;87.52
37206;BME280;23099;42.636;23.198;2023-03-19T05:10:10;92431.84;;;-1.63;88.41
37206;BME280;23099;42.636;23.198;2023-03-19T05:12:37;92437.28;;;-1.54;88.78
37206;BME280;23099;42.636;23.198;2023-03-19T05:15:04;92438.56;;;-1.52;88.21
37206;BME280;23099;42.636;23.198;2023-03-19T05:17:31;92439.06;;;-1.50;87.68
37206;BME280;23099;42.636;23.198;2023-03-19T05:19:59;92437.47;;;-1.46;87.68
37206;BME280;23099;42.636;23.198;2023-03-19T05:22:26;92437.22;;;-1.49;86.63
37206;BME280;23099;42.636;23.198;2023-03-19T05:24:53;92438.03;;;-1.49;87.34
37206;BME280;23099;42.636;23.198;2023-03-19T05:27:20;92432.69;;;-1.38;87.36
37206;BME280;23099;42.636;23.198;2023-03-19T05:29:47;92428.09;;;-1.28;87.89
37206;BME280;23099;42.636;23.198;2023-03-19T05:32:14;92430.97;;;-1.24;86.86
37206;BME280;23099;42.636;23.198;2023-03-19T05:34:40;92423.88;;;-1.24;86.65
37206;BME280;23099;42.636;23.198;2023-03-19T05:37:09;92434.06;;;-1.17;87.44
37206;BME280;23099;42.636;23.198;2023-03-19T05:39:35;92419.03;;;-1.12;87.39
37206;BME280;23099;42.636;23.198;2023-03-19T05:42:02;92418.72;;;-1.05;87.14
37206;BME280;23099;42.636;23.198;2023-03-19T05:44:29;92423.41;;;-1.02;86.89
37206;BME280;23099;42.636;23.198;2023-03-19T05:46:56;92422.16;;;-1.10;86.83
37206;BME280;23099;42.636;23.198;2023-03-19T05:49:23;92422.16;;;-1.10;86.48
37206;BME280;23099;42.636;23.198;2023-03-19T05:51:50;92429.50;;;-1.07;85.07
37206;BME280;23099;42.636;23.198;2023-03-19T05:54:18;92433.06;;;-0.97;84.95
37206;BME280;23099;42.636;23.198;2023-03-19T05:56:45;92434.81;;;-0.88;83.96
37206;BME280;23099;42.636;23.198;2023-03-19T05:59:11;92432.56;;;-0.76;83.40
37206;BME280;23099;42.636;23.198;2023-03-19T06:01:38;92430.09;;;-0.67;83.36
37206;BME280;23099;42.636;23.198;2023-03-19T06:04:05;92425.50;;;-0.56;83.95
37206;BME280;23099;42.636;23.198;2023-03-19T06:06:32;92425.38;;;-0.46;83.70
37206;BME280;23099;42.636;23.198;2023-03-19T06:08:59;92429.16;;;-0.33;83.55
37206;BME280;23099;42.636;23.198;2023-03-19T06:11:27;92428.22;;;-0.24;83.48
37206;BME280;23099;42.636;23.198;2023-03-19T06:13:53;92432.28;;;-0.13;83.39
37206;BME280;23099;42.636;23.198;2023-03-19T06:16:20;92434.97;;;0.01;82.89
37206;BME280;23099;42.636;23.198;2023-03-19T06:18:47;92433.41;;;0.19;83.26
37206;BME280;23099;42.636;23.198;2023-03-19T06:21:14;92436.59;;;0.34;81.43
37206;BME280;23099;42.636;23.198;2023-03-19T06:23:40;92432.53;;;0.42;78.83
37206;BME280;23099;42.636;23.198;2023-03-19T06:26:07;92432.59;;;0.56;77.66
37206;BME280;23099;42.636;23.198;2023-03-19T06:28:35;92435.66;;;0.77;81.11
37206;BME280;23099;42.636;23.198;2023-03-19T06:31:02;92434.31;;;0.93;79.68
37206;BME280;23099;42.636;23.198;2023-03-19T06:33:28;92446.44;;;1.08;80.06
37206;BME280;23099;42.636;23.198;2023-03-19T06:35:56;92441.47;;;1.20;78.87
37206;BME280;23099;42.636;23.198;2023-03-19T06:38:23;92455.34;;;1.39;78.36
37206;BME280;23099;42.636;23.198;2023-03-19T06:40:50;92454.34;;;1.49;74.17
37206;BME280;23099;42.636;23.198;2023-03-19T06:43:17;92461.75;;;1.60;72.64
37206;BME280;23099;42.636;23.198;2023-03-19T06:45:45;92454.63;;;1.74;72.54
37206;BME280;23099;42.636;23.198;2023-03-19T06:48:13;92460.78;;;1.84;73.41
37206;BME280;23099;42.636;23.198;2023-03-19T06:50:40;92458.63;;;1.86;71.77
37206;BME280;23099;42.636;23.198;2023-03-19T06:53:07;92464.75;;;1.95;69.44
37206;BME280;23099;42.636;23.198;2023-03-19T06:55:33;92462.81;;;2.00;68.77
37206;BME280;23099;42.636;23.198;2023-03-19T06:58:01;92463.66;;;2.09;66.83
37206;BME280;23099;42.636;23.198;2023-03-19T07:00:28;92460.78;;;2.20;67.31
37206;BME280;23099;42.636;23.198;2023-03-19T07:02:56;92464.88;;;2.26;66.78
37206;BME280;23099;42.636;23.198;2023-03-19T07:05:23;92465.91;;;2.38;68.05
37206;BME280;23099;42.636;23.198;2023-03-19T07:07:49;92464.03;;;2.53;68.27
37206;BME280;23099;42.636;23.198;2023-03-19T07:10:17;92463.19;;;2.66;69.70
37206;BME280;23099;42.636;23.198;2023-03-19T07:12:44;92468.22;;;2.76;65.90
37206;BME280;23099;42.636;23.198;2023-03-19T07:15:11;92459.00;;;2.87;68.42
37206;BME280;23099;42.636;23.198;2023-03-19T07:17:38;92460.34;;;3.07;66.77
37206;BME280;23099;42.636;23.198;2023-03-19T07:20:07;92459.53;;;3.29;63.49
37206;BME280;23099;42.636;23.198;2023-03-19T07:22:34;92460.72;;;3.53;64.07
37206;BME280;23099;42.636;23.198;2023-03-19T07:25:00;92455.69;;;3.83;63.93
37206;BME280;23099;42.636;23.198;2023-03-19T07:27:27;92449.53;;;4.13;66.09
37206;BME280;23099;42.636;23.198;2023-03-19T07:29:53;92448.44;;;4.49;65.73
37206;BME280;23099;42.636;23.198;2023-03-19T07:32:20;92448.00;;;4.73;62.65
37206;BME280;23099;42.636;23.198;2023-03-19T07:34:48;92450.13;;;4.96;63.43
37206;BME280;23099;42.636;23.198;2023-03-19T07:37:16;92450.09;;;5.22;59.76
37206;BME280;23099;42.636;23.198;2023-03-19T07:39:42;92454.34;;;5.53;60.21
37206;BME280;23099;42.636;23.198;2023-03-19T07:42:09;92449.88;;;5.83;57.47
37206;BME280;23099;42.636;23.198;2023-03-19T07:44:36;92453.78;;;6.15;56.80
37206;BME280;23099;42.636;23.198;2023-03-19T07:47:03;92456.66;;;6.51;56.13
37206;BME280;23099;42.636;23.198;2023-03-19T07:49:30;92456.59;;;6.81;55.77
37206;BME280;23099;42.636;23.198;2023-03-19T07:51:57;92448.25;;;6.91;53.72
37206;BME280;23099;42.636;23.198;2023-03-19T07:54:25;92453.06;;;7.09;55.58
37206;BME280;23099;42.636;23.198;2023-03-19T07:56:51;92452.94;;;7.39;52.33
37206;BME280;23099;42.636;23.198;2023-03-19T07:59:18;92446.97;;;7.54;52.54
37206;BME280;23099;42.636;23.198;2023-03-19T08:01:45;92448.78;;;7.74;53.35
37206;BME280;23099;42.636;23.198;2023-03-19T08:04:12;92444.69;;;7.89;51.79
37206;BME280;23099;42.636;23.198;2023-03-19T08:06:39;92443.72;;;8.06;52.82
37206;BME280;23099;42.636;23.198;2023-03-19T08:09:06;92437.16;;;8.15;50.40
37206;BME280;23099;42.636;23.198;2023-03-19T08:11:35;92448.56;;;8.16;49.52
37206;BME280;23099;42.636;23.198;2023-03-19T08:14:02;92454.78;;;8.20;49.61
37206;BME280;23099;42.636;23.198;2023-03-19T08:16:29;92452.66;;;8.26;47.60
37206;BME280;23099;42.636;23.198;2023-03-19T08:18:55;92450.56;;;8.43;47.16
37206;BME280;23099;42.636;23.198;2023-03-19T08:21:22;92449.47;;;8.44;46.56
37206;BME280;23099;42.636;23.198;2023-03-19T08:23:49;92457.56;;;8.48;47.47
37206;BME280;23099;42.636;23.198;2023-03-19T08:26:16;92453.50;;;8.66;47.60
37206;BME280;23099;42.636;23.198;2023-03-19T08:28:44;92452.44;;;8.95;46.87
37206;BME280;23099;42.636;23.198;2023-03-19T08:31:12;92458.81;;;9.18;46.37
37206;BME280;23099;42.636;23.198;2023-03-19T08:33:39;92455.34;;;9.18;47.32
37206;BME280;23099;42.636;23.198;2023-03-19T08:36:06;92459.25;;;9.20;45.24
37206;BME280;23099;42.636;23.198;2023-03-19T08:38:33;92454.25;;;9.19;46.00
37206;BME280;23099;42.636;23.198;2023-03-19T08:41:00;92443.63;;;9.35;46.74
37206;BME280;23099;42.636;23.198;2023-03-19T08:43:29;92445.34;;;9.43;45.22
37206;BME280;23099;42.636;23.198;2023-03-19T08:45:57;92444.31;;;9.47;45.76
37206;BME280;23099;42.636;23.198;2023-03-19T08:48:24;92447.53;;;9.69;46.21
37206;BME280;23099;42.636;23.198;2023-03-19T08:50:54;92450.22;;;9.84;43.81
37206;BME280;23099;42.636;23.198;2023-03-19T08:53:21;92448.75;;;10.03;44.79
37206;BME280;23099;42.636;23.198;2023-03-19T08:55:51;92441.53;;;10.19;43.91
37206;BME280;23099;42.636;23.198;2023-03-19T08:58:18;92442.09;;;10.44;45.36
37206;BME280;23099;42.636;23.198;2023-03-19T09:00:45;92437.84;;;10.58;43.49
37206;BME280;23099;42.636;23.198;2023-03-19T09:03:13;92433.91;;;10.72;43.10
37206;BME280;23099;42.636;23.198;2023-03-19T09:05:40;92431.75;;;10.77;43.54
37206;BME280;23099;42.636;23.198;2023-03-19T09:08:07;92437.78;;;10.74;43.91
37206;BME280;23099;42.636;23.198;2023-03-19T09:10:34;92430.75;;;10.66;43.61
37206;BME280;23099;42.636;23.198;2023-03-19T09:13:00;92442.44;;;10.77;43.97
37206;BME280;23099;42.636;23.198;2023-03-19T09:15:27;92436.75;;;10.98;41.55
37206;BME280;23099;42.636;23.198;2023-03-19T09:17:54;92434.03;;;10.94;42.92
37206;BME280;23099;42.636;23.198;2023-03-19T09:20:22;92435.41;;;10.88;43.06
37206;BME280;23099;42.636;23.198;2023-03-19T09:22:49;92432.41;;;11.09;43.24
37206;BME280;23099;42.636;23.198;2023-03-19T09:25:16;92421.31;;;11.30;42.96
37206;BME280;23099;42.636;23.198;2023-03-19T09:27:42;92423.22;;;11.49;42.05
37206;BME280;23099;42.636;23.198;2023-03-19T09:30:10;92422.44;;;11.48;38.35
37206;BME280;23099;42.636;23.198;2023-03-19T09:32:37;92412.16;;;11.73;39.05
37206;BME280;23099;42.636;23.198;2023-03-19T09:35:05;92404.81;;;11.89;37.35
37206;BME280;23099;42.636;23.198;2023-03-19T09:37:33;92408.56;;;12.08;35.25
37206;BME280;23099;42.636;23.198;2023-03-19T09:40:00;92415.25;;;11.75;33.48
37206;BME280;23099;42.636;23.198;2023-03-19T09:42:48;92413.75;;;11.97;34.79
37206;BME280;23099;42.636;23.198;2023-03-19T09:45:19;92410.63;;;12.18;34.33
37206;BME280;23099;42.636;23.198;2023-03-19T09:48:02;92405.38;;;12.25;32.93
37206;BME280;23099;42.636;23.198;2023-03-19T09:50:45;92402.56;;;12.44;35.33
37206;BME280;23099;42.636;23.198;2023-03-19T09:53:19;92401.19;;;12.54;33.33
37206;BME280;23099;42.636;23.198;2023-03-19T09:55:51;92409.47;;;12.45;32.16
37206;BME280;23099;42.636;23.198;2023-03-19T09:58:19;92398.00;;;12.45;32.74
37206;BME280;23099;42.636;23.198;2023-03-19T10:00:49;92393.59;;;12.59;34.47
37206;BME280;23099;42.636;23.198;2023-03-19T10:03:31;92396.41;;;12.70;34.38
37206;BME280;23099;42.636;23.198;2023-03-19T10:06:15;92392.56;;;12.67;32.91
37206;BME280;23099;42.636;23.198;2023-03-19T10:08:58;92397.06;;;12.90;35.03
37206;BME280;23099;42.636;23.198;2023-03-19T10:11:44;92388.44;;;13.37;35.87
37206;BME280;23099;42.636;23.198;2023-03-19T10:14:35;92381.09;;;13.71;35.36
37206;BME280;23099;42.636;23.198;2023-03-19T10:17:14;92384.84;;;14.03;33.97
37206;BME280;23099;42.636;23.198;2023-03-19T10:19:46;92390.56;;;14.02;32.09
37206;BME280;23099;42.636;23.198;2023-03-19T10:22:18;92387.19;;;14.08;32.28
37206;BME280;23099;42.636;23.198;2023-03-19T10:24:49;92389.09;;;14.08;32.22
37206;BME280;23099;42.636;23.198;2023-03-19T10:27:20;92380.25;;;14.07;32.81
37206;BME280;23099;42.636;23.198;2023-03-19T10:29:47;92375.94;;;14.40;35.24
37206;BME280;23099;42.636;23.198;2023-03-19T10:32:17;92372.25;;;14.73;32.32
37206;BME280;23099;42.636;23.198;2023-03-19T10:34:46;92362.75;;;14.93;32.81
37206;BME280;23099;42.636;23.198;2023-03-19T10:37:15;92361.66;;;15.08;30.89
37206;BME280;23099;42.636;23.198;2023-03-19T10:39:45;92357.81;;;15.06;31.34
37206;BME280;23099;42.636;23.198;2023-03-19T10:42:19;92350.63;;;15.38;31.87
37206;BME280;23099;42.636;23.198;2023-03-19T10:44:50;92350.28;;;15.61;30.60
37206;BME280;23099;42.636;23.198;2023-03-19T10:47:24;92343.78;;;15.87;31.94
37206;BME280;23099;42.636;23.198;2023-03-19T10:49:51;92343.41;;;16.06;30.86
37206;BME280;23099;42.636;23.198;2023-03-19T10:52:21;92338.41;;;16.30;31.60
37206;BME280;23099;42.636;23.198;2023-03-19T10:54:53;92330.25;;;16.65;32.14
37206;BME280;23099;42.636;23.198;2023-03-19T10:57:25;92327.13;;;16.77;30.51
37206;BME280;23099;42.636;23.198;2023-03-19T10:59:52;92315.88;;;17.00;30.13
37206;BME280;23099;42.636;23.198;2023-03-19T11:02:21;92306.50;;;17.26;29.96
37206;BME280;23099;42.636;23.198;2023-03-19T11:05:05;92309.44;;;17.53;29.79
37206;BME280;23099;42.636;23.198;2023-03-19T11:07:35;92297.06;;;17.55;28.84
37206;BME280;23099;42.636;23.198;2023-03-19T11:10:02;92304.72;;;17.60;28.67
37206;BME280;23099;42.636;23.198;2023-03-19T11:12:33;92303.16;;;16.97;28.63
37206;BME280;23099;42.636;23.198;2023-03-19T11:15:02;92298.25;;;17.47;31.46
37206;BME280;23099;42.636;23.198;2023-03-19T11:17:37;92293.59;;;17.55;30.66
37206;BME280;23099;42.636;23.198;2023-03-19T11:20:19;92296.00;;;17.39;28.08
37206;BME280;23099;42.636;23.198;2023-03-19T11:22:48;92288.75;;;17.21;29.13
37206;BME280;23099;42.636;23.198;2023-03-19T11:25:17;92285.75;;;17.75;32.36
37206;BME280;23099;42.636;23.198;2023-03-19T11:27:57;92279.91;;;17.80;29.55
37206;BME280;23099;42.636;23.198;2023-03-19T11:30:25;92278.09;;;17.66;28.77
37206;BME280;23099;42.636;23.198;2023-03-19T11:33:10;92273.50;;;17.56;31.25
37206;BME280;23099;42.636;23.198;2023-03-19T11:35:43;92264.19;;;17.67;32.01
37206;BME280;23099;42.636;23.198;2023-03-19T11:38:17;92269.38;;;17.92;29.77
37206;BME280;23099;42.636;23.198;2023-03-19T11:40:54;92262.25;;;18.13;30.58
37206;BME280;23099;42.636;23.198;2023-03-19T11:43:45;92266.94;;;18.09;30.30
37206;BME280;23099;42.636;23.198;2023-03-19T11:46:21;92261.94;;;18.03;30.18
37206;BME280;23099;42.636;23.198;2023-03-19T11:49:10;92258.41;;;18.10;31.19
37206;BME280;23099;42.636;23.198;2023-03-19T11:51:45;92255.44;;;18.38;30.32
37206;BME280;23099;42.636;23.198;2023-03-19T11:54:21;92251.28;;;18.68;29.87
37206;BME280;23099;42.636;23.198;2023-03-19T11:56:54;92249.00;;;18.63;29.81
37206;BME280;23099;42.636;23.198;2023-03-19T11:59:47;92230.47;;;18.92;30.59
37206;BME280;23099;42.636;23.198;2023-03-19T12:02:41;92246.06;;;18.84;31.78
37206;BME280;23099;42.636;23.198;2023-03-19T12:05:20;92232.59;;;18.77;29.64
37206;BME280;23099;42.636;23.198;2023-03-19T12:08:14;92232.84;;;18.56;30.03
37206;BME280;23099;42.636;23.198;2023-03-19T12:10:54;92235.78;;;18.72;28.73
37206;BME280;23099;42.636;23.198;2023-03-19T12:13:33;92234.59;;;18.73;30.90
37206;BME280;23099;42.636;23.198;2023-03-19T12:16:12;92223.78;;;18.73;29.29
37206;BME280;23099;42.636;23.198;2023-03-19T12:18:52;92227.16;;;18.81;29.23
37206;BME280;23099;42.636;23.198;2023-03-19T12:21:29;92225.56;;;18.83;28.80
37206;BME280;23099;42.636;23.198;2023-03-19T12:24:03;92220.53;;;18.48;29.94
37206;BME280;23099;42.636;23.198;2023-03-19T12:26:38;92228.41;;;18.35;29.37
37206;BME280;23099;42.636;23.198;2023-03-19T12:29:17;92222.63;;;18.33;29.47
37206;BME280;23099;42.636;23.198;2023-03-19T12:32:14;92224.22;;;18.68;29.81
37206;BME280;23099;42.636;23.198;2023-03-19T12:34:46;92218.19;;;18.50;29.05
37206;BME280;23099;42.636;23.198;2023-03-19T12:37:19;92222.91;;;18.80;30.21
37206;BME280;23099;42.636;23.198;2023-03-19T12:39:52;92222.44;;;18.88;29.16
37206;BME280;23099;42.636;23.198;2023-03-19T12:42:23;92218.06;;;18.94;31.15
37206;BME280;23099;42.636;23.198;2023-03-19T12:44:56;92220.41;;;18.92;28.48
37206;BME280;23099;42.636;23.198;2023-03-19T12:47:30;92211.66;;;19.12;28.71
37206;BME280;23099;42.636;23.198;2023-03-19T12:50:00;92209.66;;;18.89;28.77
37206;BME280;23099;42.636;23.198;2023-03-19T12:52:32;92210.81;;;18.88;27.71
37206;BME280;23099;42.636;23.198;2023-03-19T12:55:04;92204.09;;;18.69;29.20
37206;BME280;23099;42.636;23.198;2023-03-19T12:57:35;92206.88;;;18.62;28.53
37206;BME280;23099;42.636;23.198;2023-03-19T13:00:09;92207.31;;;18.57;28.49
37206;BME280;23099;42.636;23.198;2023-03-19T13:02:46;92203.69;;;18.70;28.90
37206;BME280;23099;42.636;23.198;2023-03-19T13:05:18;92203.00;;;18.63;28.86